createdAt,value
2023-05-16T00:03:21.168Z,12.94
2023-05-16T00:08:23.147Z,13.14
2023-05-16T00:13:25.768Z,13.07
2023-05-16T00:18:27.509Z,13.06
2023-05-16T00:23:29.274Z,13.08
2023-05-16T00:28:31.095Z,13.16
2023-05-16T00:33:33.850Z,13.10
2023-05-16T00:38:35.644Z,13.08
2023-05-16T00:43:37.666Z,12.98
2023-05-16T00:48:39.713Z,12.88
2023-05-16T00:53:42.497Z,12.78
2023-05-16T00:58:44.349Z,12.81
2023-05-16T01:03:47.319Z,12.69
2023-05-16T01:08:49.179Z,12.73
2023-05-16T01:14:18.924Z,12.58
2023-05-16T01:19:32.800Z,12.50
2023-05-16T01:24:43.911Z,12.57
2023-05-16T01:29:45.683Z,12.47
2023-05-16T01:34:47.485Z,12.44
2023-05-16T01:40:16.643Z,12.40
2023-05-16T01:45:21.163Z,12.35
2023-05-16T01:50:27.274Z,12.43
2023-05-16T01:55:47.134Z,12.42
2023-05-16T02:00:49.101Z,12.42
2023-05-16T02:05:51.317Z,12.39
2023-05-16T02:10:53.495Z,12.35
2023-05-16T02:15:56.222Z,12.47
2023-05-16T02:20:57.949Z,12.57
2023-05-16T02:25:59.697Z,12.57
2023-05-16T02:31:02.027Z,12.53
2023-05-16T02:36:04.020Z,12.40
2023-05-16T02:41:05.895Z,12.42
2023-05-16T02:46:28.635Z,12.32
2023-05-16T02:51:30.429Z,12.17
2023-05-16T02:56:32.194Z,12.26
2023-05-16T03:01:34.496Z,12.24
2023-05-16T03:06:36.384Z,12.12
2023-05-16T03:11:38.173Z,12.00
2023-05-16T03:16:41.701Z,11.84
2023-05-16T03:21:43.474Z,11.79
2023-05-16T03:26:45.400Z,11.79
2023-05-16T03:31:47.348Z,11.70
2023-05-16T03:36:52.619Z,11.70
2023-05-16T03:41:57.285Z,11.68
2023-05-16T03:46:59.200Z,11.66
2023-05-16T03:52:01.118Z,11.52
2023-05-16T03:57:02.970Z,11.52
2023-05-16T04:02:05.283Z,11.43
2023-05-16T04:07:07.333Z,11.40
2023-05-16T04:12:09.162Z,11.43
2023-05-16T04:17:11.145Z,11.23
2023-05-16T04:22:13.120Z,11.22
2023-05-16T04:27:14.978Z,11.30
2023-05-16T04:32:17.504Z,11.24
2023-05-16T04:37:19.260Z,11.25
2023-05-16T04:42:21.324Z,11.26
2023-05-16T04:47:23.083Z,11.30
2023-05-16T04:52:25.004Z,11.14
2023-05-16T04:57:27.756Z,11.15
2023-05-16T05:02:29.494Z,11.02
2023-05-16T05:07:32.267Z,11.01
2023-05-16T05:12:34.973Z,11.03
2023-05-16T05:17:37.895Z,11.09
2023-05-16T05:22:39.819Z,11.27
2023-05-16T05:27:41.577Z,11.32
2023-05-16T05:32:43.422Z,11.26
2023-05-16T05:37:45.670Z,11.20
2023-05-16T05:42:47.552Z,11.34
2023-05-16T05:47:49.368Z,11.52
2023-05-16T05:52:51.180Z,11.55
2023-05-16T05:57:52.936Z,11.75
2023-05-16T06:02:55.166Z,11.73
2023-05-16T06:07:57.069Z,11.78
2023-05-16T06:12:58.851Z,11.75
2023-05-16T06:18:00.643Z,11.75
2023-05-16T06:23:02.459Z,11.74
2023-05-16T06:28:04.533Z,11.81
2023-05-16T06:33:06.393Z,11.84
2023-05-16T06:38:08.174Z,11.87
2023-05-16T06:43:10.113Z,11.88
2023-05-16T06:48:11.961Z,12.05
2023-05-16T06:53:13.850Z,12.18
2023-05-16T06:58:15.811Z,12.09
2023-05-16T07:03:17.724Z,12.20
2023-05-16T07:08:19.633Z,12.13
2023-05-16T07:13:21.549Z,11.94
2023-05-16T07:18:23.344Z,11.69
2023-05-16T07:23:26.244Z,11.43
2023-05-16T07:28:28.145Z,11.62
2023-05-16T07:33:29.948Z,11.97
2023-05-16T07:38:31.824Z,12.12
2023-05-16T07:48:37.483Z,11.73
2023-05-16T07:53:39.283Z,11.48
2023-05-16T07:58:41.845Z,11.89
2023-05-16T08:03:43.676Z,12.49
2023-05-16T08:08:45.565Z,12.46
2023-05-16T08:13:47.741Z,12.81
2023-05-16T08:18:49.652Z,12.22
2023-05-16T08:23:51.739Z,12.47
2023-05-16T08:28:53.534Z,12.69
2023-05-16T08:33:55.744Z,13.10
2023-05-16T08:38:57.522Z,12.83
2023-05-16T08:43:59.494Z,12.51
2023-05-16T08:49:05.251Z,12.37
2023-05-16T08:54:15.872Z,12.43
2023-05-16T08:59:18.431Z,12.92
2023-05-16T09:04:20.820Z,13.35
2023-05-16T09:09:22.688Z,14.26
2023-05-16T09:14:24.932Z,14.95
2023-05-16T09:19:26.765Z,14.89
2023-05-16T09:24:30.223Z,15.53
2023-05-16T09:29:32.043Z,15.30
2023-05-16T09:34:38.559Z,15.12
2023-05-16T09:39:46.593Z,16.05
2023-05-16T09:44:53.411Z,17.45
2023-05-16T09:49:56.871Z,17.63
2023-05-16T09:55:02.659Z,17.18
2023-05-16T10:00:11.853Z,16.55
2023-05-16T10:05:13.632Z,16.10
2023-05-16T10:10:15.915Z,16.41
2023-05-16T10:15:17.836Z,16.68
2023-05-16T10:20:21.648Z,17.58
2023-05-16T10:25:30.371Z,16.52
2023-05-16T10:30:34.591Z,16.76
2023-05-16T10:35:37.206Z,16.54
2023-05-16T10:40:41.643Z,15.79
2023-05-16T10:45:43.801Z,15.95
2023-05-16T10:50:46.455Z,16.55
2023-05-16T10:56:00.339Z,16.46
2023-05-16T11:01:24.180Z,16.03
2023-05-16T11:06:34.118Z,16.64
2023-05-16T11:11:54.729Z,16.18
2023-05-16T11:17:08.854Z,16.67
2023-05-16T11:22:24.232Z,16.61
2023-05-16T11:27:30.224Z,16.82
2023-05-16T11:32:35.401Z,17.25
2023-05-16T11:37:37.892Z,17.00
2023-05-16T11:42:45.006Z,16.77
2023-05-16T11:47:49.693Z,16.97
2023-05-16T11:52:54.004Z,16.66
2023-05-16T11:57:58.412Z,16.48
2023-05-16T12:03:05.801Z,17.26
2023-05-16T12:08:11.053Z,16.88
2023-05-16T12:13:13.090Z,16.21
2023-05-16T12:18:16.433Z,16.52
2023-05-16T12:23:18.424Z,17.02
2023-05-16T12:28:20.199Z,16.67
2023-05-16T12:33:22.159Z,16.89
2023-05-16T12:38:26.709Z,16.59
2023-05-16T12:43:28.691Z,16.61
2023-05-16T12:48:37.107Z,16.96
2023-05-16T12:54:01.369Z,16.83
2023-05-16T12:59:12.822Z,15.82
2023-05-16T13:04:19.011Z,16.12
2023-05-16T13:09:21.065Z,16.76
2023-05-16T13:14:23.129Z,17.44
2023-05-16T13:19:24.994Z,17.23
2023-05-16T13:24:27.787Z,16.83
2023-05-16T13:29:29.864Z,17.21
2023-05-16T13:34:32.288Z,17.23
2023-05-16T13:39:34.078Z,17.46
2023-05-16T13:44:36.416Z,17.11
2023-05-16T13:49:39.016Z,16.74
2023-05-16T13:54:41.565Z,17.14
2023-05-16T14:00:04.022Z,16.63
2023-05-16T14:05:13.264Z,16.84
2023-05-16T14:10:15.083Z,16.89
2023-05-16T14:15:17.013Z,16.70
2023-05-16T14:20:18.864Z,17.20
2023-05-16T14:25:20.756Z,17.18
2023-05-16T14:30:22.594Z,16.91
2023-05-16T14:35:24.521Z,16.82
2023-05-16T14:40:26.385Z,16.10
2023-05-16T14:45:28.589Z,16.12
2023-05-16T14:50:30.901Z,16.17
2023-05-16T14:55:32.737Z,16.64
2023-05-16T15:00:34.715Z,16.65
2023-05-16T15:05:36.562Z,16.09
2023-05-16T15:10:38.561Z,16.00
2023-05-16T15:15:41.084Z,15.94
2023-05-16T15:20:42.932Z,15.68
2023-05-16T15:25:44.790Z,15.77
2023-05-16T15:30:46.762Z,15.77
2023-05-16T15:35:48.629Z,15.68
2023-05-16T15:40:55.301Z,15.50
2023-05-16T15:46:09.858Z,15.20
2023-05-16T15:51:13.701Z,14.72
2023-05-16T15:56:16.142Z,14.55
2023-05-16T16:01:17.950Z,14.89
2023-05-16T16:06:19.869Z,15.24
2023-05-16T16:11:22.780Z,15.16
2023-05-16T16:16:24.952Z,15.39
2023-05-16T16:21:26.841Z,15.53
2023-05-16T16:26:28.723Z,15.26
2023-05-16T16:31:30.625Z,15.45
2023-05-16T16:36:32.948Z,15.48
2023-05-16T16:41:34.770Z,15.22
2023-05-16T16:46:37.700Z,15.12
2023-05-16T16:51:39.586Z,15.13
2023-05-16T16:56:41.360Z,15.02
2023-05-16T17:01:43.434Z,15.30
2023-05-16T17:06:48.364Z,15.34
2023-05-16T17:11:50.812Z,15.18
2023-05-16T17:16:52.850Z,15.12
2023-05-16T17:21:54.697Z,15.06
2023-05-16T17:26:57.711Z,15.29
2023-05-16T17:31:59.730Z,15.40
2023-05-16T17:37:01.716Z,15.16
2023-05-16T17:42:05.630Z,15.08
2023-05-16T17:47:07.892Z,15.17
2023-05-16T17:52:09.671Z,15.15
2023-05-16T17:57:11.576Z,15.07
2023-05-16T18:02:15.600Z,14.71
2023-05-16T18:07:17.428Z,14.41
2023-05-16T18:12:19.209Z,14.20
2023-05-16T18:17:21.080Z,14.20
2023-05-16T18:22:22.990Z,14.11
2023-05-16T18:27:24.800Z,13.88
2023-05-16T18:32:26.932Z,13.62
2023-05-16T18:37:28.994Z,13.44
2023-05-16T18:42:30.852Z,13.31
2023-05-16T18:47:32.868Z,13.07
2023-05-16T18:52:36.105Z,12.92
2023-05-16T18:57:37.948Z,12.77
2023-05-16T19:02:42.408Z,12.61
2023-05-16T19:07:44.918Z,12.50
2023-05-16T19:12:49.078Z,12.40
2023-05-16T19:17:51.074Z,12.18
2023-05-16T19:22:53.064Z,12.07
2023-05-16T19:27:55.055Z,11.97
2023-05-16T19:32:56.882Z,11.87
2023-05-16T19:37:59.510Z,11.76
2023-05-16T19:43:01.351Z,11.61
2023-05-16T19:48:03.873Z,11.42
2023-05-16T19:53:05.920Z,11.37
2023-05-16T19:58:07.781Z,11.29
2023-05-16T20:03:09.620Z,11.18
2023-05-16T20:08:12.214Z,11.08
2023-05-16T20:13:18.387Z,11.02
2023-05-16T20:18:20.236Z,10.92
2023-05-16T20:23:22.080Z,10.94
2023-05-16T20:28:23.950Z,10.88
2023-05-16T20:33:26.001Z,10.83
2023-05-16T20:38:27.944Z,10.90
2023-05-16T20:43:29.707Z,10.92
2023-05-16T20:48:31.566Z,10.85
2023-05-16T20:53:33.431Z,10.87
2023-05-16T20:58:35.310Z,10.98
2023-05-16T21:03:37.198Z,11.09
2023-05-16T21:08:39.358Z,11.20
2023-05-16T21:13:41.447Z,11.20
2023-05-16T21:18:43.413Z,11.15
2023-05-16T21:23:45.337Z,11.17
2023-05-16T21:33:53.313Z,11.09
2023-05-16T21:38:55.233Z,10.93
2023-05-16T21:43:56.985Z,10.97
2023-05-16T21:48:58.818Z,10.96
2023-05-16T21:54:03.110Z,10.94
2023-05-16T21:59:04.981Z,10.82
2023-05-16T22:04:07.047Z,10.74
2023-05-16T22:09:09.032Z,10.61
2023-05-16T22:14:10.982Z,10.50
2023-05-16T22:19:12.823Z,10.36
2023-05-16T22:24:14.664Z,10.33
2023-05-16T22:29:16.433Z,10.25
2023-05-16T22:34:18.560Z,10.14
2023-05-16T22:39:20.807Z,10.06
2023-05-16T22:44:22.742Z,9.99
2023-05-16T22:49:24.727Z,10.04
2023-05-16T22:54:26.508Z,10.06
2023-05-16T22:59:28.334Z,10.05
2023-05-16T23:04:30.170Z,9.88
2023-05-16T23:09:32.017Z,9.74
2023-05-16T23:14:33.830Z,9.59
2023-05-16T23:19:35.648Z,9.42
2023-05-16T23:24:37.554Z,9.30
2023-05-16T23:29:39.389Z,9.15
2023-05-16T23:34:41.258Z,9.09
2023-05-16T23:39:46.139Z,8.96
2023-05-16T23:44:47.973Z,8.90
2023-05-16T23:49:49.739Z,8.85
2023-05-16T23:54:51.520Z,8.75
2023-05-16T23:59:53.404Z,8.69
